createdAt,value
2023-02-19T00:03:50.983Z,13.13
2023-02-19T00:08:52.367Z,12.95
2023-02-19T00:13:53.617Z,12.20
2023-02-19T00:18:54.890Z,13.82
2023-02-19T00:23:56.216Z,13.25
2023-02-19T00:28:57.619Z,11.40
2023-02-19T00:33:58.930Z,13.18
2023-02-19T00:39:00.255Z,13.30
2023-02-19T00:44:01.565Z,13.48
2023-02-19T00:49:02.868Z,13.95
2023-02-19T00:54:04.189Z,13.38
2023-02-19T00:59:05.484Z,12.95
2023-02-19T01:04:07.053Z,13.18
2023-02-19T01:09:08.377Z,12.25
2023-02-19T01:14:09.699Z,13.32
2023-02-19T01:19:11.335Z,13.95
2023-02-19T01:24:12.637Z,14.18
2023-02-19T01:29:13.925Z,14.65
2023-02-19T01:34:15.217Z,12.85
2023-02-19T01:39:16.524Z,12.50
2023-02-19T01:44:17.796Z,13.18
2023-02-19T01:49:19.059Z,13.02
2023-02-19T01:54:20.324Z,13.32
2023-02-19T01:59:21.620Z,13.10
2023-02-19T02:04:22.923Z,11.70
2023-02-19T02:09:24.203Z,9.77
2023-02-19T02:14:25.476Z,13.35
2023-02-19T02:19:26.785Z,11.80
2023-02-19T02:24:28.056Z,11.05
2023-02-19T02:29:29.341Z,13.35
2023-02-19T02:34:30.617Z,12.40
2023-02-19T02:39:31.888Z,12.02
2023-02-19T02:44:33.180Z,12.57
2023-02-19T02:49:34.437Z,9.90
2023-02-19T02:54:35.663Z,9.85
2023-02-19T02:59:36.924Z,9.35
2023-02-19T03:04:38.233Z,9.65
2023-02-19T03:09:39.549Z,8.98
2023-02-19T03:14:40.856Z,10.90
2023-02-19T03:19:42.341Z,9.40
2023-02-19T03:24:43.597Z,9.07
2023-02-19T03:29:44.864Z,8.73
2023-02-19T03:34:46.159Z,8.02
2023-02-19T03:39:47.423Z,9.10
2023-02-19T03:44:48.676Z,8.30
2023-02-19T03:49:50.052Z,8.55
2023-02-19T03:54:51.307Z,7.95
2023-02-19T03:59:52.612Z,7.47
2023-02-19T04:04:53.896Z,6.95
2023-02-19T04:09:55.238Z,8.27
2023-02-19T04:14:56.531Z,9.32
2023-02-19T04:19:57.904Z,8.15
2023-02-19T04:24:59.201Z,8.50
2023-02-19T04:30:00.569Z,8.32
2023-02-19T04:35:01.898Z,8.23
2023-02-19T04:40:03.204Z,8.13
2023-02-19T04:45:04.527Z,9.15
2023-02-19T04:50:05.747Z,8.70
2023-02-19T04:55:07.093Z,9.07
2023-02-19T05:00:08.416Z,8.65
2023-02-19T05:05:09.706Z,9.02
2023-02-19T05:10:11.004Z,8.32
2023-02-19T05:15:12.245Z,9.23
2023-02-19T05:20:13.488Z,8.20
2023-02-19T05:25:14.803Z,8.80
2023-02-19T05:30:16.143Z,8.18
2023-02-19T05:35:17.441Z,8.15
2023-02-19T05:40:18.718Z,8.20
2023-02-19T05:45:20.038Z,8.60
2023-02-19T05:50:21.328Z,7.53
2023-02-19T05:55:22.793Z,8.82
2023-02-19T06:00:24.153Z,9.70
2023-02-19T06:05:25.434Z,8.77
2023-02-19T06:10:26.733Z,8.32
2023-02-19T06:15:28.084Z,8.25
2023-02-19T06:20:29.349Z,6.95
2023-02-19T06:25:30.630Z,7.10
2023-02-19T06:30:32.031Z,8.68
2023-02-19T06:35:33.344Z,7.90
2023-02-19T06:40:34.866Z,8.60
2023-02-19T06:45:36.185Z,9.02
2023-02-19T06:50:37.566Z,8.18
2023-02-19T06:55:38.921Z,8.40
2023-02-19T07:00:40.213Z,8.88
2023-02-19T07:05:41.584Z,9.02
2023-02-19T07:10:42.887Z,8.90
2023-02-19T07:15:44.178Z,9.80
2023-02-19T07:20:45.567Z,8.52
2023-02-19T07:25:46.841Z,8.75
2023-02-19T07:30:48.289Z,8.93
2023-02-19T07:35:49.562Z,8.85
2023-02-19T07:40:50.851Z,10.25
2023-02-19T07:45:52.259Z,9.13
2023-02-19T07:50:53.694Z,9.10
2023-02-19T07:55:55.019Z,9.02
2023-02-19T08:00:56.369Z,9.45
2023-02-19T08:05:57.673Z,8.35
2023-02-19T08:10:58.950Z,8.38
2023-02-19T08:16:15.957Z,9.70
2023-02-19T08:21:19.997Z,10.07
2023-02-19T08:26:21.393Z,10.02
2023-02-19T08:31:22.766Z,9.77
2023-02-19T08:36:24.184Z,10.00
2023-02-19T08:41:25.678Z,8.77
2023-02-19T08:46:26.968Z,8.88
2023-02-19T08:51:28.417Z,8.32
2023-02-19T08:56:29.692Z,9.00
2023-02-19T09:01:31.047Z,9.18
2023-02-19T09:06:32.396Z,8.95
2023-02-19T09:11:33.697Z,8.35
2023-02-19T09:16:34.989Z,9.48
2023-02-19T09:21:36.432Z,8.70
2023-02-19T09:26:38.666Z,9.40
2023-02-19T09:31:40.231Z,8.43
2023-02-19T09:36:41.570Z,9.35
2023-02-19T09:41:42.864Z,9.07
2023-02-19T09:46:44.190Z,9.52
2023-02-19T09:51:45.580Z,11.48
2023-02-19T09:56:46.845Z,10.45
2023-02-19T10:01:48.476Z,7.50
2023-02-19T10:06:49.829Z,10.82
2023-02-19T10:11:51.670Z,9.43
2023-02-19T10:16:52.996Z,10.38
2023-02-19T10:21:54.350Z,10.38
2023-02-19T10:26:55.644Z,9.07
2023-02-19T10:31:57.126Z,8.63
2023-02-19T10:36:58.527Z,9.48
2023-02-19T10:41:59.875Z,9.00
2023-02-19T10:47:01.193Z,9.35
2023-02-19T10:52:02.625Z,10.20
2023-02-19T10:57:03.916Z,10.05
2023-02-19T11:02:05.382Z,9.45
2023-02-19T11:07:06.808Z,7.18
2023-02-19T11:12:09.547Z,9.50
2023-02-19T11:17:11.003Z,9.40
2023-02-19T11:22:12.295Z,9.00
2023-02-19T11:27:13.754Z,9.63
2023-02-19T11:32:15.168Z,9.32
2023-02-19T11:37:16.590Z,9.68
2023-02-19T11:42:17.917Z,8.88
2023-02-19T11:47:19.190Z,8.95
2023-02-19T11:52:20.577Z,8.70
2023-02-19T11:57:21.896Z,9.32
2023-02-19T12:02:23.362Z,9.25
2023-02-19T12:07:24.580Z,8.25
2023-02-19T12:12:25.903Z,8.02
2023-02-19T12:17:27.212Z,9.40
2023-02-19T12:22:28.528Z,9.18
2023-02-19T12:27:29.808Z,9.68
2023-02-19T12:32:31.104Z,9.05
2023-02-19T12:37:32.407Z,9.18
2023-02-19T12:42:33.657Z,8.90
2023-02-19T12:47:35.081Z,9.90
2023-02-19T12:52:36.415Z,9.75
2023-02-19T12:57:37.690Z,9.25
2023-02-19T13:02:39.130Z,8.30
2023-02-19T13:07:40.611Z,8.68
2023-02-19T13:12:41.906Z,9.23
2023-02-19T13:17:43.314Z,9.57
2023-02-19T13:22:44.622Z,8.88
2023-02-19T13:32:52.331Z,9.20
2023-02-19T13:37:53.689Z,9.43
2023-02-19T13:42:55.112Z,9.57
2023-02-19T13:47:56.426Z,9.35
2023-02-19T13:52:57.780Z,8.48
2023-02-19T13:57:59.141Z,8.77
2023-02-19T14:03:00.462Z,9.13
2023-02-19T14:08:01.873Z,9.40
2023-02-19T14:13:03.149Z,9.57
2023-02-19T14:18:04.484Z,8.38
2023-02-19T14:23:05.781Z,7.47
2023-02-19T14:28:07.054Z,7.78
2023-02-19T14:33:10.930Z,8.63
2023-02-19T14:38:12.407Z,9.75
2023-02-19T14:43:13.769Z,9.48
2023-02-19T14:48:15.380Z,9.02
2023-02-19T14:53:16.651Z,8.52
2023-02-19T14:58:17.965Z,8.35
2023-02-19T15:03:19.332Z,8.30
2023-02-19T15:08:20.620Z,8.90
2023-02-19T15:13:21.853Z,9.98
2023-02-19T15:18:23.216Z,10.30
2023-02-19T15:23:24.575Z,9.48
2023-02-19T15:28:25.973Z,7.32
2023-02-19T15:33:27.289Z,8.95
2023-02-19T15:38:28.609Z,9.77
2023-02-19T15:43:30.430Z,9.35
2023-02-19T15:48:31.761Z,8.00
2023-02-19T15:53:33.338Z,8.32
2023-02-19T15:58:34.648Z,8.77
2023-02-19T16:03:36.040Z,7.05
2023-02-19T16:08:37.370Z,9.38
2023-02-19T16:13:38.738Z,7.57
2023-02-19T16:18:39.972Z,9.20
2023-02-19T16:23:41.192Z,8.98
2023-02-19T16:28:42.518Z,9.38
2023-02-19T16:33:43.843Z,8.38
2023-02-19T16:38:45.152Z,9.85
2023-02-19T16:43:46.615Z,7.32
2023-02-19T16:48:47.908Z,10.00
2023-02-19T16:53:49.167Z,9.13
2023-02-19T16:58:50.515Z,7.53
2023-02-19T17:03:51.934Z,9.57
2023-02-19T17:08:53.246Z,9.32
2023-02-19T17:13:54.634Z,10.00
2023-02-19T17:18:55.938Z,9.90
2023-02-19T17:23:57.392Z,9.13
2023-02-19T17:28:58.638Z,8.93
2023-02-19T17:33:59.948Z,9.55
2023-02-19T17:39:01.200Z,9.43
2023-02-19T17:44:02.499Z,8.27
2023-02-19T17:49:03.771Z,7.40
2023-02-19T17:54:06.964Z,9.70
2023-02-19T17:59:09.680Z,6.80
2023-02-19T18:04:11.019Z,7.95
2023-02-19T18:09:12.392Z,8.48
2023-02-19T18:14:13.668Z,9.68
2023-02-19T18:19:14.988Z,8.80
2023-02-19T18:24:16.354Z,10.45
2023-02-19T18:29:17.778Z,6.57
2023-02-19T18:34:19.031Z,8.85
2023-02-19T18:39:20.406Z,8.23
2023-02-19T18:44:21.737Z,9.15
